createdAt,value
2023-12-28T00:00:29.368Z,100463.19
2023-12-28T00:02:57.172Z,100459.31
2023-12-28T00:05:25.155Z,100473.03
2023-12-28T00:07:58.860Z,100474.06
2023-12-28T00:10:28.649Z,100454.16
2023-12-28T00:12:56.866Z,100460.81
2023-12-28T00:15:26.411Z,100464.38
2023-12-28T00:17:54.319Z,100473.41
2023-12-28T00:20:22.346Z,100470.38
2023-12-28T00:22:50.132Z,100467.09
2023-12-28T00:25:18.004Z,100475.28
2023-12-28T00:27:46.928Z,100481.72
2023-12-28T00:30:16.058Z,100475.25
2023-12-28T00:32:47.120Z,100479.69
2023-12-28T00:35:15.232Z,100476.50
2023-12-28T00:37:43.263Z,100469.19
2023-12-28T00:40:13.528Z,100473.22
2023-12-28T00:42:42.155Z,100464.06
2023-12-28T00:45:10.932Z,100459.81
2023-12-28T00:47:39.045Z,100462.50
2023-12-28T00:50:09.033Z,100475.28
2023-12-28T00:52:37.676Z,100481.75
2023-12-28T00:55:06.398Z,100486.16
2023-12-28T00:57:34.356Z,100477.50
2023-12-28T01:00:02.930Z,100474.59
2023-12-28T01:02:30.803Z,100476.34
2023-12-28T01:04:58.649Z,100469.50
2023-12-28T01:07:28.286Z,100482.41
2023-12-28T01:09:56.276Z,100477.34
2023-12-28T01:12:25.788Z,100486.53
2023-12-28T01:14:53.596Z,100493.47
2023-12-28T01:17:21.413Z,100494.66
2023-12-28T01:19:49.458Z,100489.75
2023-12-28T01:22:18.245Z,100493.84
2023-12-28T01:24:50.775Z,100492.31
2023-12-28T01:27:18.822Z,100505.88
2023-12-28T01:29:46.741Z,100505.91
2023-12-28T01:32:14.622Z,100511.00
2023-12-28T01:34:43.540Z,100514.59
2023-12-28T01:37:11.512Z,100530.03
2023-12-28T01:39:39.403Z,100516.06
2023-12-28T01:42:08.681Z,100517.09
2023-12-28T01:44:36.479Z,100521.66
2023-12-28T01:47:04.697Z,100541.59
2023-12-28T01:49:34.541Z,100515.56
2023-12-28T01:52:03.984Z,100521.19
2023-12-28T01:54:32.421Z,100505.88
2023-12-28T01:57:02.385Z,100507.72
2023-12-28T01:59:32.174Z,100516.03
2023-12-28T02:02:00.340Z,100519.13
2023-12-28T02:04:30.180Z,100511.34
2023-12-28T02:06:59.795Z,100520.47
2023-12-28T02:09:28.254Z,100518.59
2023-12-28T02:11:56.769Z,100515.88
2023-12-28T02:14:25.086Z,100518.59
2023-12-28T02:17:02.853Z,100519.66
2023-12-28T02:19:40.264Z,100496.19
2023-12-28T02:22:10.194Z,100506.22
2023-12-28T02:27:31.235Z,100498.91
2023-12-28T02:30:00.339Z,100510.63
2023-12-28T02:32:38.762Z,100510.94
2023-12-28T02:35:17.255Z,100514.16
2023-12-28T02:37:46.534Z,100514.66
2023-12-28T02:40:17.545Z,100513.63
2023-12-28T02:42:46.671Z,100515.38
2023-12-28T02:45:15.656Z,100508.03
2023-12-28T02:47:45.221Z,100499.72
2023-12-28T02:50:13.200Z,100496.53
2023-12-28T02:52:40.097Z,100500.59
2023-12-28T02:55:09.088Z,100488.38
2023-12-28T02:57:38.929Z,100485.84
2023-12-28T03:00:09.876Z,100475.94
2023-12-28T03:02:38.578Z,100480.34
2023-12-28T03:05:08.048Z,100472.41
2023-12-28T03:07:37.888Z,100474.59
2023-12-28T03:10:06.613Z,100477.66
2023-12-28T03:12:34.771Z,100473.63
2023-12-28T03:15:02.669Z,100477.66
2023-12-28T03:17:33.750Z,100468.66
2023-12-28T03:20:01.885Z,100474.63
2023-12-28T03:22:29.774Z,100481.28
2023-12-28T03:24:57.619Z,100473.94
2023-12-28T03:27:26.071Z,100475.00
2023-12-28T03:29:53.972Z,100469.00
2023-12-28T03:32:21.857Z,100483.28
2023-12-28T03:34:52.508Z,100492.31
2023-12-28T03:37:20.310Z,100462.72
2023-12-28T03:39:48.372Z,100468.00
2023-12-28T03:42:16.532Z,100482.47
2023-12-28T03:44:45.057Z,100468.53
2023-12-28T03:47:12.877Z,100477.19
2023-12-28T03:49:41.546Z,100453.03
2023-12-28T03:52:10.786Z,100456.44
2023-12-28T03:54:39.015Z,100444.38
2023-12-28T03:57:06.873Z,100457.28
2023-12-28T03:59:34.740Z,100442.69
2023-12-28T04:02:02.527Z,100445.72
2023-12-28T04:04:30.943Z,100446.41
2023-12-28T04:06:58.866Z,100425.84
2023-12-28T04:09:28.163Z,100451.50
2023-12-28T04:11:56.039Z,100434.88
2023-12-28T04:14:24.177Z,100442.00
2023-12-28T04:16:52.050Z,100431.97
2023-12-28T04:19:21.383Z,100446.75
2023-12-28T04:21:49.553Z,100455.09
2023-12-28T04:24:17.426Z,100458.47
2023-12-28T04:26:46.610Z,100435.69
2023-12-28T04:29:14.884Z,100449.78
2023-12-28T04:31:43.983Z,100447.75
2023-12-28T04:34:11.968Z,100454.91
2023-12-28T04:36:44.154Z,100449.47
2023-12-28T04:39:12.042Z,100433.66
2023-12-28T04:41:39.905Z,100450.81
2023-12-28T04:44:09.123Z,100451.50
2023-12-28T04:46:41.277Z,100422.94
2023-12-28T04:49:10.382Z,100433.16
2023-12-28T04:51:38.273Z,100422.97
2023-12-28T04:54:06.422Z,100446.75
2023-12-28T04:56:34.196Z,100450.09
2023-12-28T04:59:02.098Z,100435.16
2023-12-28T05:01:32.742Z,100438.59
2023-12-28T05:04:01.118Z,100442.81
2023-12-28T05:06:30.278Z,100441.81
2023-12-28T05:08:58.188Z,100437.22
2023-12-28T05:11:26.010Z,100415.13
2023-12-28T05:13:53.796Z,100454.75
2023-12-28T05:16:22.073Z,100429.91
2023-12-28T05:18:51.391Z,100409.47
2023-12-28T05:21:19.654Z,100425.66
2023-12-28T05:23:47.506Z,100432.09
2023-12-28T05:26:15.293Z,100439.94
2023-12-28T05:28:43.108Z,100446.06
2023-12-28T05:31:10.955Z,100476.16
2023-12-28T05:33:38.850Z,100450.34
2023-12-28T05:36:11.581Z,100432.31
2023-12-28T05:38:40.062Z,100446.94
2023-12-28T05:41:07.903Z,100451.19
2023-12-28T05:43:35.699Z,100473.44
2023-12-28T05:46:03.571Z,100448.63
2023-12-28T05:48:31.483Z,100439.59
2023-12-28T05:50:59.574Z,100468.34
2023-12-28T05:53:30.370Z,100447.94
2023-12-28T05:55:58.095Z,100430.59
2023-12-28T05:58:25.840Z,100434.50
2023-12-28T06:00:55.576Z,100435.53
2023-12-28T06:03:23.430Z,100425.66
2023-12-28T06:05:51.268Z,100429.88
2023-12-28T06:08:19.059Z,100426.34
2023-12-28T06:10:48.176Z,100424.13
2023-12-28T06:13:16.062Z,100451.69
2023-12-28T06:15:44.842Z,100433.31
2023-12-28T06:18:13.345Z,100422.09
2023-12-28T06:20:41.462Z,100448.97
2023-12-28T06:23:09.931Z,100439.09
2023-12-28T06:25:37.721Z,100417.50
2023-12-28T06:28:07.322Z,100426.69
2023-12-28T06:30:35.275Z,100445.06
2023-12-28T06:33:03.179Z,100436.53
2023-12-28T06:35:31.089Z,100431.78
2023-12-28T06:37:59.082Z,100448.97
2023-12-28T06:40:27.004Z,100415.81
2023-12-28T06:42:54.968Z,100440.28
2023-12-28T06:45:28.922Z,100442.13
2023-12-28T06:47:57.221Z,100449.47
2023-12-28T06:50:25.278Z,100429.88
2023-12-28T06:52:53.023Z,100452.00
2023-12-28T06:55:20.801Z,100441.28
2023-12-28T06:57:48.611Z,100463.75
2023-12-28T07:00:16.900Z,100427.34
2023-12-28T07:02:46.268Z,100446.38
2023-12-28T07:05:15.220Z,100436.50
2023-12-28T07:07:43.229Z,100432.75
2023-12-28T07:10:11.240Z,100432.97
2023-12-28T07:12:39.159Z,100445.88
2023-12-28T07:15:07.524Z,100451.00
2023-12-28T07:17:35.391Z,100471.41
2023-12-28T07:20:05.272Z,100485.31
2023-12-28T07:22:33.595Z,100459.63
2023-12-28T07:25:01.560Z,100484.28
2023-12-28T07:27:29.421Z,100481.91
2023-12-28T07:29:57.448Z,100470.97
2023-12-28T07:32:27.296Z,100516.94
2023-12-28T07:34:55.370Z,100497.06
2023-12-28T07:37:24.579Z,100507.81
2023-12-28T07:39:52.551Z,100495.88
2023-12-28T07:42:20.336Z,100485.69
2023-12-28T07:44:48.225Z,100482.13
2023-12-28T07:47:16.316Z,100506.94
2023-12-28T07:49:44.703Z,100493.53
2023-12-28T07:52:12.540Z,100482.28
2023-12-28T07:54:41.800Z,100531.78
2023-12-28T07:57:10.132Z,100533.47
2023-12-28T07:59:37.934Z,100512.03
2023-12-28T08:02:05.985Z,100510.34
2023-12-28T08:04:33.855Z,100521.06
2023-12-28T08:07:02.001Z,100518.50
2023-12-28T08:09:30.329Z,100527.00
2023-12-28T08:11:59.494Z,100565.44
2023-12-28T08:14:28.488Z,100507.63
2023-12-28T08:16:56.247Z,100525.31
2023-12-28T08:19:24.077Z,100525.66
2023-12-28T08:21:51.994Z,100515.94
2023-12-28T08:24:19.821Z,100538.00
2023-12-28T08:26:47.801Z,100527.66
2023-12-28T08:29:17.000Z,100542.78
2023-12-28T08:31:48.227Z,100521.91
2023-12-28T08:34:16.702Z,100536.16
2023-12-28T08:36:44.585Z,100507.44
2023-12-28T08:39:12.424Z,100535.84
2023-12-28T08:41:40.230Z,100517.13
2023-12-28T08:44:07.993Z,100526.44
2023-12-28T08:46:37.172Z,100535.47
2023-12-28T08:49:05.202Z,100525.94
2023-12-28T08:51:33.250Z,100533.25
2023-12-28T08:54:01.096Z,100546.91
2023-12-28T08:56:28.869Z,100554.06
2023-12-28T08:58:56.586Z,100522.56
2023-12-28T09:01:26.467Z,100535.81
2023-12-28T09:03:56.387Z,100526.59
2023-12-28T09:06:24.848Z,100549.94
2023-12-28T09:08:54.630Z,100552.84
2023-12-28T09:11:23.033Z,100552.84
2023-12-28T09:13:50.921Z,100558.44
2023-12-28T09:16:19.312Z,100567.66
2023-12-28T09:18:47.463Z,100564.59
2023-12-28T09:21:16.775Z,100565.63
2023-12-28T09:23:44.607Z,100564.75
2023-12-28T09:26:12.373Z,100579.75
2023-12-28T09:28:41.146Z,100582.63
2023-12-28T09:31:09.214Z,100571.06
2023-12-28T09:33:37.775Z,100575.66
2023-12-28T09:36:06.465Z,100592.16
2023-12-28T09:38:35.740Z,100593.53
2023-12-28T09:41:13.228Z,100582.97
2023-12-28T09:43:51.578Z,100587.56
2023-12-28T09:46:19.603Z,100600.47
2023-12-28T09:48:48.133Z,100602.72
2023-12-28T09:51:17.550Z,100616.16
2023-12-28T09:53:48.271Z,100604.41
2023-12-28T09:56:16.250Z,100607.34
2023-12-28T09:58:46.214Z,100617.00
2023-12-28T10:01:16.938Z,100604.91
2023-12-28T10:03:45.112Z,100644.41
2023-12-28T10:06:12.982Z,100631.66
2023-12-28T10:08:48.921Z,100614.97
2023-12-28T10:11:17.738Z,100631.00
2023-12-28T10:13:45.712Z,100613.91
2023-12-28T10:16:14.070Z,100635.06
2023-12-28T10:18:43.753Z,100615.31
2023-12-28T10:21:13.909Z,100627.88
2023-12-28T10:23:42.459Z,100625.69
2023-12-28T10:26:11.950Z,100636.41
2023-12-28T10:28:40.770Z,100625.19
2023-12-28T10:31:10.237Z,100631.63
2023-12-28T10:33:38.898Z,100649.72
2023-12-28T10:36:09.061Z,100633.16
2023-12-28T10:38:38.633Z,100621.47
2023-12-28T10:41:09.612Z,100648.19
2023-12-28T10:43:47.701Z,100633.84
2023-12-28T10:46:24.491Z,100638.44
2023-12-28T10:49:00.259Z,100651.56
2023-12-28T10:51:30.002Z,100685.78
2023-12-28T10:54:12.664Z,100626.41
2023-12-28T10:56:45.839Z,100634.88
2023-12-28T10:59:23.483Z,100637.78
2023-12-28T11:01:56.058Z,100631.50
2023-12-28T11:04:31.528Z,100662.44
2023-12-28T11:07:02.053Z,100653.44
2023-12-28T11:09:33.551Z,100633.84
2023-12-28T11:12:03.265Z,100619.19
2023-12-28T11:14:33.342Z,100642.88
2023-12-28T11:17:02.345Z,100623.66
2023-12-28T11:19:31.138Z,100628.59
2023-12-28T11:22:01.240Z,100632.84
2023-12-28T11:24:30.524Z,100629.06
2023-12-28T11:26:58.707Z,100648.13
2023-12-28T11:29:27.110Z,100653.41
2023-12-28T11:31:57.045Z,100630.78
2023-12-28T11:34:28.025Z,100637.06
2023-12-28T11:36:58.605Z,100622.94
2023-12-28T11:39:34.773Z,100624.66
2023-12-28T11:42:04.281Z,100629.25
2023-12-28T11:44:32.892Z,100639.81
2023-12-28T11:47:12.610Z,100635.22
2023-12-28T11:49:41.872Z,100642.69
2023-12-28T11:52:12.158Z,100637.28
2023-12-28T11:54:40.023Z,100642.88
2023-12-28T11:57:08.161Z,100645.94
2023-12-28T11:59:35.997Z,100631.31
2023-12-28T12:02:08.500Z,100626.38
2023-12-28T12:04:36.813Z,100631.47
2023-12-28T12:07:05.448Z,100626.03
2023-12-28T12:09:35.809Z,100629.06
2023-12-28T12:12:04.264Z,100641.69
2023-12-28T12:14:32.803Z,100643.75
2023-12-28T12:17:00.655Z,100661.78
2023-12-28T12:19:30.520Z,100625.84
2023-12-28T12:21:59.208Z,100635.75
2023-12-28T12:24:27.022Z,100617.00
2023-12-28T12:26:55.314Z,100630.59
2023-12-28T12:29:29.114Z,100612.91
2023-12-28T12:31:58.777Z,100608.50
2023-12-28T12:34:26.887Z,100601.53
2023-12-28T12:36:56.834Z,100600.69
2023-12-28T12:39:26.102Z,100607.81
2023-12-28T12:41:54.275Z,100615.78
2023-12-28T12:44:22.197Z,100602.53
2023-12-28T12:46:50.017Z,100595.06
2023-12-28T12:49:19.141Z,100604.09
2023-12-28T12:51:47.672Z,100599.31
2023-12-28T12:54:19.840Z,100565.63
2023-12-28T12:56:47.992Z,100596.59
2023-12-28T12:59:18.420Z,100629.44
2023-12-28T13:01:46.636Z,100607.66
2023-12-28T13:04:15.533Z,100610.22
2023-12-28T13:06:43.539Z,100614.78
2023-12-28T13:09:12.466Z,100603.56
2023-12-28T13:11:42.019Z,100601.84
2023-12-28T13:14:09.802Z,100616.47
2023-12-28T13:16:37.576Z,100612.41
2023-12-28T13:19:05.767Z,100620.09
2023-12-28T13:21:34.132Z,100607.66
2023-12-28T13:24:03.554Z,100621.97
2023-12-28T13:26:31.525Z,100601.16
2023-12-28T13:29:02.077Z,100602.19
2023-12-28T13:31:31.824Z,100595.56
2023-12-28T13:34:00.167Z,100600.34
2023-12-28T13:36:29.609Z,100605.47
2023-12-28T13:38:57.597Z,100616.00
2023-12-28T13:41:25.472Z,100615.47
2023-12-28T13:44:00.219Z,100615.63
2023-12-28T13:46:29.374Z,100584.50
2023-12-28T13:48:58.235Z,100596.94
2023-12-28T13:51:26.415Z,100596.75
2023-12-28T13:53:54.266Z,100586.00
2023-12-28T13:56:22.364Z,100601.34
2023-12-28T13:58:50.310Z,100597.97
2023-12-28T14:01:18.549Z,100603.91
2023-12-28T14:03:52.372Z,100590.97
2023-12-28T14:06:20.595Z,100588.75
2023-12-28T14:08:48.658Z,100582.59
2023-12-28T14:11:16.488Z,100570.88
2023-12-28T14:13:44.290Z,100580.09
2023-12-28T14:16:12.195Z,100594.03
2023-12-28T14:18:43.193Z,100584.34
2023-12-28T14:21:13.880Z,100581.13
2023-12-28T14:23:42.596Z,100591.66
2023-12-28T14:26:14.846Z,100583.66
2023-12-28T14:28:43.929Z,100566.78
2023-12-28T14:31:12.724Z,100632.81
2023-12-28T14:33:42.453Z,100603.53
2023-12-28T14:36:23.317Z,100602.69
2023-12-28T14:38:51.154Z,100596.25
2023-12-28T14:41:18.971Z,100606.06
2023-12-28T14:43:46.803Z,100613.22
2023-12-28T14:46:14.646Z,100592.28
2023-12-28T14:48:42.500Z,100584.59
2023-12-28T14:51:10.368Z,100599.28
2023-12-28T14:53:39.555Z,100589.41
2023-12-28T14:56:07.746Z,100592.81
2023-12-28T14:58:35.712Z,100593.81
2023-12-28T15:01:03.978Z,100596.69
2023-12-28T15:03:31.980Z,100580.38
2023-12-28T15:06:00.096Z,100599.06
2023-12-28T15:08:28.180Z,100597.03
2023-12-28T15:10:58.439Z,100600.06
2023-12-28T15:13:26.374Z,100580.38
2023-12-28T15:15:55.185Z,100570.50
2023-12-28T15:18:23.845Z,100570.34
2023-12-28T15:20:52.458Z,100576.66
2023-12-28T15:23:21.701Z,100575.66
2023-12-28T15:25:49.632Z,100577.84
2023-12-28T15:28:19.764Z,100561.50
2023-12-28T15:30:47.793Z,100563.53
2023-12-28T15:33:15.820Z,100577.50
2023-12-28T15:35:43.757Z,100573.94
2023-12-28T15:38:11.873Z,100555.41
2023-12-28T15:40:39.735Z,100558.78
2023-12-28T15:43:07.599Z,100568.50
2023-12-28T15:45:37.342Z,100572.41
2023-12-28T15:48:05.930Z,100555.75
2023-12-28T15:50:33.954Z,100552.34
2023-12-28T15:53:01.805Z,100549.81
2023-12-28T15:55:29.860Z,100549.47
2023-12-28T15:57:58.050Z,100545.38
2023-12-28T16:00:27.553Z,100584.66
2023-12-28T16:02:56.942Z,100539.59
2023-12-28T16:05:24.833Z,100539.75
2023-12-28T16:07:52.742Z,100539.56
2023-12-28T16:10:20.830Z,100549.44
2023-12-28T16:12:48.945Z,100541.13
2023-12-28T16:15:17.307Z,100529.41
2023-12-28T16:17:47.982Z,100511.88
2023-12-28T16:20:18.431Z,100523.25
2023-12-28T16:22:46.763Z,100532.09
2023-12-28T16:25:14.789Z,100523.09
2023-12-28T16:27:42.727Z,100502.13
2023-12-28T16:30:11.583Z,100551.69
2023-12-28T16:32:39.670Z,100514.75
2023-12-28T16:35:08.436Z,100509.84
2023-12-28T16:37:37.636Z,100508.97
2023-12-28T16:40:10.020Z,100503.19
2023-12-28T16:42:39.159Z,100503.53
2023-12-28T16:45:07.816Z,100503.88
2023-12-28T16:47:35.717Z,100506.44
2023-12-28T16:50:04.542Z,100489.59
2023-12-28T16:52:32.428Z,100499.63
2023-12-28T16:55:01.724Z,100508.97
2023-12-28T16:57:29.694Z,100482.28
2023-12-28T17:00:07.117Z,100490.09
2023-12-28T17:02:39.532Z,100515.78
2023-12-28T17:05:08.815Z,100486.88
2023-12-28T17:07:36.931Z,100490.44
2023-12-28T17:10:07.657Z,100488.06
2023-12-28T17:12:39.555Z,100488.94
2023-12-28T17:15:08.987Z,100496.41
2023-12-28T17:17:37.827Z,100477.84
2023-12-28T17:20:07.483Z,100518.00
2023-12-28T17:22:46.906Z,100477.69
2023-12-28T17:25:33.623Z,100471.22
2023-12-28T17:28:07.444Z,100474.13
2023-12-28T17:30:37.811Z,100474.31
2023-12-28T17:33:06.401Z,100479.72
2023-12-28T17:35:34.753Z,100484.66
2023-12-28T17:38:03.346Z,100457.63
2023-12-28T17:40:33.545Z,100480.56
2023-12-28T17:43:07.012Z,100465.63
2023-12-28T17:45:37.228Z,100440.97
2023-12-28T17:48:09.043Z,100485.16
2023-12-28T17:50:38.564Z,100461.72
2023-12-28T17:53:07.460Z,100468.69
2023-12-28T17:55:36.985Z,100438.75
2023-12-28T17:58:05.521Z,100445.88
2023-12-28T18:00:33.507Z,100454.88
2023-12-28T18:03:06.347Z,100440.78
2023-12-28T18:05:34.295Z,100447.38
2023-12-28T18:08:02.626Z,100433.13
2023-12-28T18:10:30.572Z,100438.91
2023-12-28T18:12:59.853Z,100429.19
2023-12-28T18:15:27.755Z,100416.38
2023-12-28T18:17:55.555Z,100419.59
2023-12-28T18:20:23.513Z,100413.66
2023-12-28T18:22:51.313Z,100430.03
2023-12-28T18:25:19.183Z,100430.34
2023-12-28T18:27:47.233Z,100426.09
2023-12-28T18:30:16.813Z,100410.78
2023-12-28T18:32:44.804Z,100421.72
2023-12-28T18:35:14.231Z,100420.56
2023-12-28T18:37:43.375Z,100418.00
2023-12-28T18:40:12.601Z,100437.00
2023-12-28T18:42:40.405Z,100425.41
2023-12-28T18:45:09.810Z,100416.56
2023-12-28T18:47:41.241Z,100411.84
2023-12-28T18:50:09.565Z,100411.00
2023-12-28T18:52:37.467Z,100408.94
2023-12-28T18:55:06.350Z,100412.66
2023-12-28T18:57:34.316Z,100417.44
2023-12-28T19:00:02.276Z,100416.94
2023-12-28T19:02:30.250Z,100421.69
2023-12-28T19:04:59.666Z,100401.41
2023-12-28T19:07:27.574Z,100400.75
2023-12-28T19:09:55.450Z,100399.25
2023-12-28T19:12:23.577Z,100408.56
2023-12-28T19:14:51.503Z,100417.59
2023-12-28T19:17:19.383Z,100402.56
2023-12-28T19:19:47.399Z,100399.41
2023-12-28T19:22:16.806Z,100396.88
2023-12-28T19:24:44.683Z,100410.88
2023-12-28T19:27:13.977Z,100397.78
2023-12-28T19:29:41.756Z,100396.59
2023-12-28T19:32:09.566Z,100379.25
2023-12-28T19:34:37.389Z,100388.44
2023-12-28T19:37:05.598Z,100382.50
2023-12-28T19:39:35.004Z,100364.63
2023-12-28T19:42:02.983Z,100401.47
2023-12-28T19:44:31.256Z,100373.09
2023-12-28T19:46:59.093Z,100376.16
2023-12-28T19:49:28.367Z,100373.41
2023-12-28T19:51:56.629Z,100373.94
2023-12-28T19:54:24.498Z,100370.88
2023-12-28T19:56:53.978Z,100355.91
2023-12-28T19:59:21.931Z,100342.16
2023-12-28T20:01:50.424Z,100350.47
2023-12-28T20:04:18.676Z,100355.06
2023-12-28T20:06:47.405Z,100346.75
2023-12-28T20:09:15.502Z,100339.59
2023-12-28T20:11:43.626Z,100365.44
2023-12-28T20:14:14.438Z,100355.25
2023-12-28T20:16:43.300Z,100349.47
2023-12-28T20:19:11.477Z,100387.50
2023-12-28T20:21:40.878Z,100349.00
2023-12-28T20:24:10.505Z,100335.38
2023-12-28T20:26:38.906Z,100345.75
2023-12-28T20:29:08.003Z,100363.72
2023-12-28T20:31:37.195Z,100337.63
2023-12-28T20:34:05.238Z,100337.25
2023-12-28T20:36:33.240Z,100334.38
2023-12-28T20:39:01.153Z,100333.69
2023-12-28T20:41:28.933Z,100344.97
2023-12-28T20:43:56.773Z,100356.16
2023-12-28T20:46:24.689Z,100347.16
2023-12-28T20:48:53.957Z,100320.94
2023-12-28T20:51:21.946Z,100326.06
2023-12-28T20:53:49.866Z,100336.97
2023-12-28T20:56:17.869Z,100331.19
2023-12-28T20:58:46.263Z,100314.69
2023-12-28T21:01:14.662Z,100306.03
2023-12-28T21:03:42.459Z,100337.16
2023-12-28T21:06:11.679Z,100324.41
2023-12-28T21:08:39.551Z,100315.59
2023-12-28T21:11:07.394Z,100333.22
2023-12-28T21:13:39.547Z,100312.69
2023-12-28T21:16:08.417Z,100297.22
2023-12-28T21:18:36.803Z,100289.75
2023-12-28T21:21:11.094Z,100297.94
2023-12-28T21:23:41.932Z,100290.56
2023-12-28T21:26:10.132Z,100281.25
2023-12-28T21:28:38.117Z,100280.78
2023-12-28T21:31:06.184Z,100273.13
2023-12-28T21:33:34.511Z,100290.28
2023-12-28T21:36:03.000Z,100274.81
2023-12-28T21:38:30.853Z,100278.38
2023-12-28T21:41:00.033Z,100284.31
2023-12-28T21:43:30.376Z,100294.34
2023-12-28T21:45:58.341Z,100309.81
2023-12-28T21:48:26.569Z,100308.31
2023-12-28T21:50:54.647Z,100306.91
2023-12-28T21:53:22.698Z,100273.16
2023-12-28T21:55:50.661Z,100289.25
2023-12-28T21:58:20.042Z,100294.03
2023-12-28T22:00:48.251Z,100324.59
2023-12-28T22:03:16.276Z,100289.97
2023-12-28T22:05:44.223Z,100294.03
2023-12-28T22:08:13.658Z,100284.69
2023-12-28T22:10:42.106Z,100288.75
2023-12-28T22:13:10.090Z,100281.13
2023-12-28T22:15:39.345Z,100286.22
2023-12-28T22:18:09.141Z,100285.72
2023-12-28T22:20:37.141Z,100280.41
2023-12-28T22:23:05.165Z,100271.06
2023-12-28T22:25:33.129Z,100278.03
2023-12-28T22:28:01.277Z,100289.41
2023-12-28T22:30:32.593Z,100292.28
2023-12-28T22:33:02.187Z,100302.81
2023-12-28T22:35:30.071Z,100315.22
2023-12-28T22:37:58.069Z,100297.56
2023-12-28T22:40:26.055Z,100305.00
2023-12-28T22:42:54.454Z,100291.44
2023-12-28T22:45:22.480Z,100283.31
2023-12-28T22:47:50.347Z,100281.44
2023-12-28T22:50:19.569Z,100304.03
2023-12-28T22:52:47.397Z,100324.44
2023-12-28T22:55:15.454Z,100309.31
2023-12-28T22:57:43.342Z,100307.28
2023-12-28T23:00:23.859Z,100307.44
2023-12-28T23:02:52.546Z,100295.91
2023-12-28T23:05:21.958Z,100287.91
2023-12-28T23:07:50.350Z,100280.78
2023-12-28T23:10:18.282Z,100277.91
2023-12-28T23:12:46.168Z,100289.25
2023-12-28T23:15:14.165Z,100277.19
2023-12-28T23:17:41.968Z,100293.16
2023-12-28T23:20:10.414Z,100284.31
2023-12-28T23:22:41.753Z,100271.41
2023-12-28T23:25:10.069Z,100282.97
2023-12-28T23:27:37.981Z,100279.75
2023-12-28T23:30:06.683Z,100291.13
2023-12-28T23:32:34.498Z,100276.31
2023-12-28T23:35:02.618Z,100270.53
2023-12-28T23:37:30.757Z,100278.78
2023-12-28T23:40:00.001Z,100277.13
2023-12-28T23:42:27.802Z,100294.00
2023-12-28T23:44:55.669Z,100279.00
2023-12-28T23:47:23.401Z,100267.81
2023-12-28T23:49:51.243Z,100280.16
2023-12-28T23:52:19.080Z,100262.81
2023-12-28T23:54:47.025Z,100275.75
2023-12-28T23:57:16.190Z,100269.63
2023-12-28T23:59:43.960Z,100276.63
